createdAt,value
2023-02-12T00:02:29.659Z,-0.50
2023-02-12T00:05:27.702Z,-0.50
2023-02-12T00:08:17.265Z,-0.60
2023-02-12T00:11:11.576Z,-0.60
2023-02-12T00:14:05.446Z,-0.70
2023-02-12T00:16:54.862Z,-0.70
2023-02-12T00:19:44.504Z,-0.80
2023-02-12T00:22:33.884Z,-0.80
2023-02-12T00:25:23.255Z,-0.80
2023-02-12T00:28:12.859Z,-0.90
2023-02-12T00:31:08.909Z,-1.00
2023-02-12T00:33:59.669Z,-1.10
2023-02-12T00:36:49.030Z,-1.20
2023-02-12T00:39:38.489Z,-1.30
2023-02-12T00:42:27.909Z,-1.20
2023-02-12T00:45:17.670Z,-1.30
2023-02-12T00:48:09.074Z,-1.30
2023-02-12T00:50:58.842Z,-1.20
2023-02-12T00:53:48.381Z,-1.30
2023-02-12T00:56:37.854Z,-1.30
2023-02-12T00:59:27.657Z,-1.20
2023-02-12T01:02:18.401Z,-1.20
2023-02-12T01:05:10.410Z,-1.30
2023-02-12T01:07:59.954Z,-1.40
2023-02-12T01:10:58.297Z,-1.50
2023-02-12T01:13:48.046Z,-1.60
2023-02-12T01:16:38.603Z,-1.60
2023-02-12T01:19:28.221Z,-1.90
2023-02-12T01:22:19.098Z,-1.80
2023-02-12T01:25:09.410Z,-1.70
2023-02-12T01:27:58.985Z,-2.00
2023-02-12T01:30:49.513Z,-1.70
2023-02-12T01:33:38.908Z,-1.90
2023-02-12T01:36:29.595Z,-2.00
2023-02-12T01:39:20.711Z,-2.30
2023-02-12T01:42:13.675Z,-2.10
2023-02-12T01:45:48.224Z,-2.00
2023-02-12T01:48:39.598Z,-2.10
2023-02-12T01:51:32.257Z,-2.20
2023-02-12T01:54:26.208Z,-2.00
2023-02-12T01:57:17.169Z,-2.10
2023-02-12T02:00:09.935Z,-2.30
2023-02-12T02:03:02.206Z,-2.20
2023-02-12T02:05:57.449Z,-2.20
2023-02-12T02:08:47.610Z,-2.40
2023-02-12T02:11:51.203Z,-2.30
2023-02-12T02:14:42.340Z,-2.40
2023-02-12T02:17:49.001Z,-2.30
2023-02-12T02:21:04.193Z,-2.50
2023-02-12T02:24:22.978Z,-2.50
2023-02-12T02:27:32.059Z,-2.50
2023-02-12T02:30:45.740Z,-2.60
2023-02-12T02:33:40.837Z,-2.60
2023-02-12T02:36:36.869Z,-2.50
2023-02-12T02:39:31.218Z,-2.60
2023-02-12T02:42:29.347Z,-2.50
2023-02-12T02:45:22.913Z,-2.40
2023-02-12T02:48:19.257Z,-2.60
2023-02-12T02:51:14.399Z,-2.60
2023-02-12T02:54:09.603Z,-2.60
2023-02-12T02:57:05.034Z,-2.60
2023-02-12T02:59:57.696Z,-2.80
2023-02-12T03:02:51.117Z,-2.80
2023-02-12T03:05:47.059Z,-2.70
2023-02-12T03:08:40.837Z,-2.60
2023-02-12T03:11:33.549Z,-2.70
2023-02-12T03:14:26.287Z,-2.60
2023-02-12T03:17:23.090Z,-3.10
2023-02-12T03:20:18.802Z,-2.70
2023-02-12T03:23:14.640Z,-2.80
2023-02-12T03:26:09.444Z,-2.80
2023-02-12T03:28:58.923Z,-2.70
2023-02-12T03:32:00.369Z,-2.40
2023-02-12T03:34:53.092Z,-2.30
2023-02-12T03:37:48.254Z,-2.00
2023-02-12T03:40:43.936Z,-1.90
2023-02-12T03:43:41.366Z,-1.80
2023-02-12T03:46:39.996Z,-1.90
2023-02-12T03:49:33.144Z,-1.80
2023-02-12T03:52:23.065Z,-1.80
2023-02-12T03:55:13.720Z,-1.80
2023-02-12T03:58:09.513Z,-1.70
2023-02-12T04:00:59.334Z,-1.60
2023-02-12T04:03:49.232Z,-1.60
2023-02-12T04:06:38.603Z,-1.50
2023-02-12T04:09:29.579Z,-1.50
2023-02-12T04:12:36.827Z,-1.70
2023-02-12T04:15:43.928Z,-2.00
2023-02-12T04:18:40.032Z,-2.00
2023-02-12T04:21:44.935Z,-2.10
2023-02-12T04:24:45.834Z,-2.20
2023-02-12T04:27:47.903Z,-2.50
2023-02-12T04:30:44.723Z,-2.50
2023-02-12T04:33:39.470Z,-2.90
2023-02-12T04:36:33.128Z,-2.70
2023-02-12T04:39:26.027Z,-2.60
2023-02-12T04:42:15.360Z,-2.70
2023-02-12T04:45:04.956Z,-2.90
2023-02-12T04:47:55.988Z,-3.40
2023-02-12T04:50:46.931Z,-2.90
2023-02-12T04:53:36.392Z,-3.00
2023-02-12T04:56:25.683Z,-3.00
2023-02-12T04:59:15.441Z,-3.00
2023-02-12T05:02:05.060Z,-2.90
2023-02-12T05:04:56.302Z,-3.20
2023-02-12T05:07:45.895Z,-3.20
2023-02-12T05:10:35.320Z,-3.10
2023-02-12T05:13:24.769Z,-3.00
2023-02-12T05:16:14.115Z,-3.30
2023-02-12T05:19:03.532Z,-3.20
2023-02-12T05:21:54.426Z,-3.20
2023-02-12T05:24:44.012Z,-3.30
2023-02-12T05:27:33.367Z,-3.10
2023-02-12T05:30:23.049Z,-3.30
2023-02-12T05:33:12.336Z,-3.30
2023-02-12T05:36:06.735Z,-3.30
2023-02-12T05:39:00.668Z,-3.10
2023-02-12T05:41:50.027Z,-3.10
2023-02-12T05:44:39.515Z,-3.20
2023-02-12T05:47:28.759Z,-3.10
2023-02-12T05:50:18.478Z,-3.40
2023-02-12T05:53:07.763Z,-3.40
2023-02-12T05:56:14.621Z,-3.20
2023-02-12T05:59:05.756Z,-3.20
2023-02-12T06:01:55.422Z,-3.20
2023-02-12T06:04:46.412Z,-3.40
2023-02-12T06:07:37.609Z,-3.50
2023-02-12T06:10:27.082Z,-3.40
2023-02-12T06:13:18.014Z,-3.20
2023-02-12T06:16:08.339Z,-3.30
2023-02-12T06:18:58.648Z,-3.10
2023-02-12T06:21:48.507Z,-3.00
2023-02-12T06:24:38.709Z,-3.00
2023-02-12T06:27:28.144Z,-2.90
2023-02-12T06:30:19.454Z,-3.10
2023-02-12T06:33:08.914Z,-3.20
2023-02-12T06:35:58.558Z,-3.00
2023-02-12T06:38:48.699Z,-2.90
2023-02-12T06:41:38.189Z,-3.00
2023-02-12T06:44:27.539Z,-2.90
2023-02-12T06:47:18.426Z,-2.70
2023-02-12T06:50:09.146Z,-2.90
2023-02-12T06:52:59.995Z,-2.60
2023-02-12T06:55:49.377Z,-2.60
2023-02-12T06:58:39.158Z,-2.60
2023-02-12T07:01:30.141Z,-2.50
2023-02-12T07:04:21.872Z,-2.40
2023-02-12T07:07:11.417Z,-2.20
2023-02-12T07:10:00.693Z,-2.30
2023-02-12T07:12:50.381Z,-2.20
2023-02-12T07:15:41.998Z,-2.10
2023-02-12T07:18:31.365Z,-2.00
2023-02-12T07:21:23.409Z,-1.70
2023-02-12T07:24:14.154Z,-1.80
2023-02-12T07:27:06.028Z,-1.70
2023-02-12T07:29:57.780Z,-1.60
2023-02-12T07:32:47.901Z,-1.50
2023-02-12T07:35:38.012Z,-1.50
2023-02-12T07:38:30.089Z,-1.30
2023-02-12T07:41:21.710Z,-1.40
2023-02-12T07:44:14.028Z,-1.30
2023-02-12T07:47:04.288Z,-1.20
2023-02-12T07:49:54.840Z,-1.10
2023-02-12T07:52:44.278Z,-1.00
2023-02-12T07:55:35.178Z,-1.00
2023-02-12T07:58:24.740Z,-0.90
2023-02-12T08:01:16.837Z,-0.80
2023-02-12T08:04:08.132Z,-0.70
2023-02-12T08:06:58.430Z,-0.70
2023-02-12T08:09:47.672Z,-0.60
2023-02-12T08:12:38.764Z,-0.50
2023-02-12T08:15:28.344Z,-0.40
2023-02-12T08:18:17.739Z,-0.30
2023-02-12T08:21:08.760Z,-0.20
2023-02-12T08:23:59.509Z,-0.10
2023-02-12T08:26:48.861Z,0.00
2023-02-12T08:29:39.788Z,0.20
2023-02-12T08:32:29.818Z,0.20
2023-02-12T08:35:19.211Z,0.30
2023-02-12T08:38:08.663Z,0.50
2023-02-12T08:40:58.103Z,0.60
2023-02-12T08:43:47.580Z,0.70
2023-02-12T08:46:40.778Z,0.70
2023-02-12T08:49:31.751Z,0.80
2023-02-12T08:52:22.048Z,0.90
2023-02-12T08:55:11.415Z,1.10
2023-02-12T08:58:01.665Z,1.10
2023-02-12T09:00:51.040Z,1.20
2023-02-12T09:03:42.018Z,1.40
2023-02-12T09:06:33.370Z,1.50
2023-02-12T09:09:23.552Z,1.60
2023-02-12T09:12:12.934Z,1.70
2023-02-12T09:15:02.368Z,1.70
2023-02-12T09:17:51.843Z,1.80
2023-02-12T09:20:44.428Z,1.80
2023-02-12T09:23:34.429Z,1.80
2023-02-12T09:26:26.055Z,1.90
2023-02-12T09:29:15.464Z,1.90
2023-02-12T09:32:07.012Z,1.90
2023-02-12T09:34:56.964Z,1.90
2023-02-12T09:37:47.744Z,1.90
2023-02-12T09:40:45.581Z,1.90
2023-02-12T09:43:44.500Z,2.10
2023-02-12T09:46:36.395Z,2.10
2023-02-12T09:49:45.126Z,2.30
2023-02-12T09:52:36.926Z,2.30
2023-02-12T09:55:31.459Z,2.40
2023-02-12T09:58:31.312Z,2.40
2023-02-12T10:01:23.144Z,2.40
2023-02-12T10:04:12.669Z,2.50
2023-02-12T10:07:13.783Z,2.50
2023-02-12T10:10:20.480Z,2.60
2023-02-12T10:13:19.189Z,2.70
2023-02-12T10:16:16.374Z,2.90
2023-02-12T10:19:25.206Z,2.90
2023-02-12T10:22:25.830Z,3.00
2023-02-12T10:25:25.958Z,3.00
2023-02-12T10:28:21.293Z,3.10
2023-02-12T10:31:17.062Z,3.10
2023-02-12T10:34:16.272Z,3.10
2023-02-12T10:37:06.776Z,3.10
2023-02-12T10:40:00.524Z,3.20
2023-02-12T10:42:52.683Z,3.20
2023-02-12T10:45:45.339Z,3.20
2023-02-12T10:48:38.560Z,3.30
2023-02-12T10:51:50.405Z,3.30
2023-02-12T10:54:47.454Z,3.40
2023-02-12T10:57:41.419Z,3.30
2023-02-12T11:00:33.686Z,3.40
2023-02-12T11:03:25.816Z,3.50
2023-02-12T11:06:18.935Z,3.40
2023-02-12T11:09:08.366Z,3.40
2023-02-12T11:11:57.999Z,3.50
2023-02-12T11:14:52.298Z,3.50
2023-02-12T11:17:44.228Z,3.50
2023-02-12T11:20:41.851Z,3.50
2023-02-12T11:23:34.049Z,3.30
2023-02-12T11:26:29.201Z,3.40
2023-02-12T11:29:26.218Z,3.40
2023-02-12T11:32:19.672Z,3.50
2023-02-12T11:35:14.358Z,3.60
2023-02-12T11:38:05.670Z,3.60
2023-02-12T11:41:03.507Z,3.70
2023-02-12T11:43:53.796Z,3.80
2023-02-12T11:46:50.771Z,3.90
2023-02-12T11:49:44.470Z,4.00
2023-02-12T11:52:36.499Z,4.10
2023-02-12T11:55:33.795Z,4.10
2023-02-12T11:58:25.589Z,4.10
2023-02-12T12:01:20.970Z,4.20
2023-02-12T12:04:16.657Z,4.10
2023-02-12T12:07:14.489Z,4.20
2023-02-12T12:10:09.477Z,4.30
2023-02-12T12:13:05.469Z,4.30
2023-02-12T12:16:23.688Z,4.20
2023-02-12T12:19:35.401Z,4.20
2023-02-12T12:22:48.741Z,4.10
2023-02-12T12:25:45.546Z,4.10
2023-02-12T12:28:42.902Z,4.20
2023-02-12T12:31:38.235Z,4.20
2023-02-12T12:34:35.536Z,4.10
2023-02-12T12:37:41.251Z,4.10
2023-02-12T12:40:49.650Z,4.00
2023-02-12T12:43:52.090Z,3.90
2023-02-12T12:47:05.158Z,4.00
2023-02-12T12:50:37.876Z,4.00
2023-02-12T12:53:59.398Z,4.00
2023-02-12T12:57:04.354Z,4.10
2023-02-12T13:00:13.426Z,4.30
2023-02-12T13:04:03.533Z,4.50
2023-02-12T13:07:06.347Z,4.70
2023-02-12T13:10:25.478Z,4.80
2023-02-12T13:13:28.823Z,4.80
2023-02-12T13:16:26.062Z,4.90
2023-02-12T13:19:23.034Z,4.90
2023-02-12T13:22:19.476Z,4.80
2023-02-12T13:25:25.836Z,4.80
2023-02-12T13:28:22.910Z,4.80
2023-02-12T13:31:33.096Z,4.80
2023-02-12T13:34:30.528Z,4.90
2023-02-12T13:37:24.602Z,4.80
2023-02-12T13:40:18.881Z,4.60
2023-02-12T13:43:21.742Z,4.70
2023-02-12T13:46:19.448Z,4.70
2023-02-12T13:49:23.262Z,4.60
2023-02-12T13:52:25.365Z,4.50
2023-02-12T13:55:27.055Z,4.60
2023-02-12T13:58:43.024Z,4.50
2023-02-12T14:01:43.711Z,4.50
2023-02-12T14:04:36.451Z,4.30
2023-02-12T14:07:44.060Z,4.10
2023-02-12T14:10:38.276Z,4.00
2023-02-12T14:13:34.998Z,3.90
2023-02-12T14:16:44.070Z,3.90
2023-02-12T14:19:56.995Z,3.90
2023-02-12T14:23:23.531Z,3.90
2023-02-12T14:26:17.267Z,3.80
2023-02-12T14:29:18.792Z,3.70
2023-02-12T14:33:03.237Z,3.50
2023-02-12T14:36:22.309Z,3.40
2023-02-12T14:39:32.674Z,3.20
2023-02-12T14:42:46.713Z,3.10
2023-02-12T14:45:39.326Z,3.00
2023-02-12T14:48:51.602Z,2.90
2023-02-12T14:51:49.217Z,2.80
2023-02-12T14:54:46.169Z,2.60
2023-02-12T14:57:38.609Z,2.40
2023-02-12T15:00:36.931Z,2.30
2023-02-12T15:03:35.716Z,2.20
2023-02-12T15:06:38.172Z,2.10
2023-02-12T15:09:36.457Z,1.90
2023-02-12T15:12:34.742Z,1.80
2023-02-12T15:15:32.145Z,1.70
2023-02-12T15:18:29.078Z,1.70
2023-02-12T15:21:25.070Z,1.60
2023-02-12T15:24:23.556Z,1.60
2023-02-12T15:27:17.157Z,1.50
2023-02-12T15:30:25.609Z,1.40
2023-02-12T15:33:30.417Z,1.30
2023-02-12T15:36:23.133Z,1.20
2023-02-12T15:39:22.956Z,1.00
2023-02-12T15:42:28.085Z,1.00
2023-02-12T15:45:27.402Z,0.90
2023-02-12T15:48:21.496Z,0.80
2023-02-12T15:51:22.415Z,0.70
2023-02-12T15:54:22.423Z,0.70
2023-02-12T15:57:15.346Z,0.60
2023-02-12T16:00:11.928Z,0.60
2023-02-12T16:03:04.791Z,0.50
2023-02-12T16:06:01.597Z,0.40
2023-02-12T16:09:18.397Z,0.40
2023-02-12T16:12:15.793Z,0.40
2023-02-12T16:15:08.159Z,0.30
2023-02-12T16:18:00.634Z,0.30
2023-02-12T16:21:08.484Z,0.20
2023-02-12T16:24:00.401Z,0.20
2023-02-12T16:26:53.864Z,0.20
2023-02-12T16:29:50.337Z,0.10
2023-02-12T16:32:48.959Z,0.10
2023-02-12T16:35:49.877Z,0.10
2023-02-12T16:38:48.042Z,0.10
2023-02-12T16:41:58.612Z,0.00
2023-02-12T16:44:49.629Z,0.10
2023-02-12T16:47:41.338Z,0.00
2023-02-12T16:50:34.115Z,0.10
2023-02-12T16:53:44.541Z,0.10
2023-02-12T16:56:42.307Z,0.10
2023-02-12T16:59:33.209Z,0.10
2023-02-12T17:02:24.947Z,0.10
2023-02-12T17:05:17.737Z,0.10
2023-02-12T17:08:15.497Z,0.10
2023-02-12T17:11:06.690Z,0.10
2023-02-12T17:13:59.504Z,0.10
2023-02-12T17:16:50.895Z,0.20
2023-02-12T17:19:41.763Z,0.20
2023-02-12T17:22:37.761Z,0.30
2023-02-12T17:25:31.150Z,0.30
2023-02-12T17:28:23.748Z,0.40
2023-02-12T17:31:16.125Z,0.40
2023-02-12T17:34:07.774Z,0.50
2023-02-12T17:36:59.664Z,0.50
2023-02-12T17:39:51.164Z,0.50
2023-02-12T17:42:42.881Z,0.50
2023-02-12T17:45:34.896Z,0.50
2023-02-12T17:48:30.940Z,0.60
2023-02-12T17:51:24.649Z,0.60
2023-02-12T17:54:19.767Z,0.60
2023-02-12T17:57:14.851Z,0.60
2023-02-12T18:00:06.432Z,0.70
2023-02-12T18:02:57.793Z,0.70
2023-02-12T18:05:52.753Z,0.80
2023-02-12T18:08:44.926Z,0.80
2023-02-12T18:11:37.400Z,0.90
2023-02-12T18:14:35.554Z,0.90
2023-02-12T18:17:27.552Z,0.90
2023-02-12T18:20:24.668Z,1.00
2023-02-12T18:23:18.310Z,1.00
2023-02-12T18:26:11.631Z,1.10
2023-02-12T18:29:03.672Z,1.30
2023-02-12T18:31:57.973Z,1.40
2023-02-12T18:34:50.855Z,1.60
2023-02-12T18:37:43.406Z,1.80
2023-02-12T18:40:37.205Z,1.90
2023-02-12T18:43:29.721Z,2.00
2023-02-12T18:46:24.373Z,2.00
2023-02-12T18:49:20.645Z,2.10
2023-02-12T18:52:12.540Z,2.10
2023-02-12T18:55:03.699Z,2.20
2023-02-12T18:57:55.992Z,2.20
2023-02-12T19:00:50.821Z,2.30
2023-02-12T19:03:41.932Z,2.40
2023-02-12T19:06:36.313Z,2.30
2023-02-12T19:09:30.109Z,2.40
2023-02-12T19:12:23.889Z,2.40
2023-02-12T19:15:17.778Z,2.40
2023-02-12T19:18:09.490Z,2.40
2023-02-12T19:21:00.297Z,2.40
2023-02-12T19:23:51.096Z,2.50
2023-02-12T19:26:41.766Z,2.50
2023-02-12T19:29:32.988Z,2.50
2023-02-12T19:32:31.564Z,2.60
2023-02-12T19:35:24.989Z,2.60
2023-02-12T19:38:19.801Z,2.60
2023-02-12T19:41:14.036Z,2.50
2023-02-12T19:44:05.050Z,2.60
2023-02-12T19:46:57.393Z,2.60
2023-02-12T19:49:50.661Z,2.70
2023-02-12T19:52:41.746Z,2.70
2023-02-12T19:55:34.944Z,2.70
2023-02-12T19:58:27.515Z,2.70
2023-02-12T20:01:22.527Z,2.70
2023-02-12T20:04:19.402Z,2.70
2023-02-12T20:07:20.043Z,2.70
2023-02-12T20:10:15.197Z,2.80
2023-02-12T20:13:08.238Z,2.70
2023-02-12T20:15:59.854Z,2.70
2023-02-12T20:18:58.566Z,2.60
2023-02-12T20:21:55.316Z,2.70
2023-02-12T20:24:51.178Z,2.70
2023-02-12T20:27:43.054Z,2.80
2023-02-12T20:30:36.874Z,2.70
2023-02-12T20:33:30.005Z,2.70
2023-02-12T20:36:21.695Z,2.70
2023-02-12T20:39:15.125Z,2.80
2023-02-12T20:42:07.425Z,2.70
2023-02-12T20:44:59.108Z,2.60
2023-02-12T20:47:49.752Z,2.70
2023-02-12T20:50:40.684Z,2.70
2023-02-12T20:53:33.685Z,2.80
2023-02-12T20:56:28.712Z,2.80
2023-02-12T20:59:21.190Z,2.90
2023-02-12T21:02:13.621Z,3.00
2023-02-12T21:05:04.444Z,2.90
2023-02-12T21:07:55.149Z,2.90
2023-02-12T21:10:47.240Z,2.90
2023-02-12T21:13:39.886Z,2.90
2023-02-12T21:16:34.021Z,2.80
2023-02-12T21:19:25.775Z,2.80
2023-02-12T21:22:17.748Z,2.80
2023-02-12T21:25:09.362Z,2.90
2023-02-12T21:28:00.140Z,2.70
2023-02-12T21:30:51.260Z,2.70
2023-02-12T21:33:45.116Z,2.70
2023-02-12T21:36:37.719Z,2.70
2023-02-12T21:39:30.878Z,2.70
2023-02-12T21:42:20.194Z,2.80
2023-02-12T21:45:11.457Z,2.80
2023-02-12T21:48:00.950Z,2.80
2023-02-12T21:50:52.386Z,2.80
2023-02-12T21:53:42.247Z,2.90
2023-02-12T21:56:32.485Z,2.90
2023-02-12T21:59:22.065Z,3.00
2023-02-12T22:02:11.678Z,2.90
2023-02-12T22:05:01.019Z,3.00
2023-02-12T22:07:53.467Z,3.00
2023-02-12T22:10:42.811Z,3.00
2023-02-12T22:13:32.276Z,3.00
2023-02-12T22:16:23.239Z,3.00
2023-02-12T22:19:12.703Z,3.10
2023-02-12T22:22:02.071Z,3.10
2023-02-12T22:24:52.818Z,3.20
2023-02-12T22:27:42.177Z,3.10
2023-02-12T22:30:31.596Z,3.20
2023-02-12T22:33:20.946Z,3.20
2023-02-12T22:36:11.462Z,3.10
2023-02-12T22:39:02.199Z,3.10
2023-02-12T22:41:52.960Z,3.10
2023-02-12T22:44:42.228Z,3.10
2023-02-12T22:47:32.432Z,3.10
2023-02-12T22:50:21.950Z,3.20
2023-02-12T22:53:11.311Z,3.20
2023-02-12T22:56:04.470Z,3.20
2023-02-12T22:58:58.428Z,3.20
2023-02-12T23:01:47.924Z,3.20
2023-02-12T23:04:38.025Z,3.20
2023-02-12T23:07:27.458Z,3.30
2023-02-12T23:10:17.011Z,3.30
2023-02-12T23:13:06.570Z,3.30
2023-02-12T23:15:57.566Z,3.40
2023-02-12T23:18:46.933Z,3.40
2023-02-12T23:21:36.241Z,3.50
2023-02-12T23:24:26.237Z,3.50
2023-02-12T23:27:15.513Z,3.40
2023-02-12T23:30:04.922Z,3.50
2023-02-12T23:32:55.791Z,3.50
2023-02-12T23:35:48.662Z,3.60
2023-02-12T23:38:37.958Z,3.60
2023-02-12T23:41:27.319Z,3.60
2023-02-12T23:44:16.993Z,3.70
2023-02-12T23:47:06.373Z,3.70
2023-02-12T23:49:57.248Z,3.70
2023-02-12T23:52:46.609Z,3.60
2023-02-12T23:55:38.480Z,3.70
2023-02-12T23:58:27.963Z,3.70
